Time;durP1;ratioP1;P1;durP2;ratioP2;P2;SDS_P1;SDS_P2;PMS_P1;PMS_P2;Temp;Humidity;BMP_temperature;BMP_pressure;BME280_temperature;BME280_humidity;BME280_pressure;Samples;Min_cycle;Max_cycle;Signal;HPM_P1;HPM_P2
2021/12/08 00:00:22;;;;;;;25.00;10.87;;;-5.20;99.90;;;;;;4918183;29;20198;-83
2021/12/08 00:02:48;;;;;;;76.53;21.07;;;;;;;;;;4918200;29;20190;-82
2021/12/08 00:05:20;;;;;;;58.27;19.77;;;-5.40;99.90;;;;;;4917708;29;20249;-82
2021/12/08 00:07:46;;;;;;;47.10;15.93;;;-3.70;99.90;;;;;;4921343;29;20518;-82
2021/12/08 00:10:29;;;;;;;40.53;13.70;;;-5.10;99.90;;;;;;4921274;29;20186;-82
2021/12/08 00:15:28;;;;;;;39.70;13.23;;;;;;;;;;4921993;29;20188;-82
2021/12/08 00:17:56;;;;;;;44.40;14.60;;;;;;;;;;4921042;29;20222;-82
2021/12/08 00:20:22;;;;;;;40.83;14.83;;;;;;;;;;4920875;29;20268;-82
2021/12/08 00:22:48;;;;;;;62.43;19.40;;;;;;;;;;4905418;29;20271;-81
2021/12/08 00:25:15;;;;;;;67.87;21.67;;;;;;;;;;4920826;29;20187;-82
2021/12/08 00:27:41;;;;;;;44.53;17.00;;;-5.50;99.90;;;;;;4905940;29;20557;-81
2021/12/08 00:30:07;;;;;;;33.67;11.70;;;-5.40;99.90;;;;;;4921047;29;20273;-81
2021/12/08 00:32:35;;;;;;;30.90;12.23;;;;;;;;;;4920588;29;20222;-82
2021/12/08 00:35:02;;;;;;;39.03;12.60;;;;;;;;;;4938048;29;20217;-81
2021/12/08 00:37:28;;;;;;;23.30;10.97;;;;;;;;;;4937938;29;20639;-82
2021/12/08 00:39:54;;;;;;;43.33;13.67;;;;;;;;;;4920911;29;20189;-82
2021/12/08 00:42:21;;;;;;;28.47;11.07;;;-5.40;99.90;;;;;;4937670;29;20187;-82
2021/12/08 00:44:47;;;;;;;37.43;13.07;;;;;;;;;;4938516;29;20706;-81
2021/12/08 00:47:13;;;;;;;33.07;13.40;;;;;;;;;;4920743;29;20235;-84
2021/12/08 00:49:40;;;;;;;30.03;12.30;;;;;;;;;;4938300;29;20184;-82
2021/12/08 00:52:07;;;;;;;36.57;14.93;;;-5.40;99.90;;;;;;4921423;29;20184;-81
2021/12/08 00:54:33;;;;;;;41.73;16.93;;;;;;;;;;4937631;29;20209;-82
2021/12/08 00:57:00;;;;;;;30.80;13.70;;;-5.40;99.90;;;;;;4920785;29;20290;-81
2021/12/08 00:59:26;;;;;;;30.20;11.00;;;-5.40;99.90;;;;;;4920295;29;20205;-82
2021/12/08 01:01:52;;;;;;;19.73;9.93;;;;;;;;;;4937561;29;20178;-82
2021/12/08 01:04:18;;;;;;;21.67;9.80;;;;;;;;;;4920298;29;20188;-82
2021/12/08 01:06:44;;;;;;;26.07;10.83;;;;;;;;;;4920584;29;20186;-82
2021/12/08 01:09:12;;;;;;;34.13;12.67;;;-5.40;99.90;;;;;;4904904;29;20194;-82
2021/12/08 01:11:38;;;;;;;40.43;13.27;;;-5.40;99.90;;;;;;4904604;29;20248;-82
2021/12/08 01:14:04;;;;;;;26.33;12.23;;;;;;;;;;4904604;29;20561;-82
2021/12/08 01:16:30;;;;;;;44.87;15.23;;;;;;;;;;4937256;29;20182;-81
2021/12/08 01:18:56;;;;;;;37.20;13.53;;;;;;;;;;4920405;29;20183;-82
2021/12/08 01:21:22;;;;;;;32.23;12.50;;;;;;;;;;4936812;29;20231;-82
2021/12/08 01:23:49;;;;;;;41.37;13.90;;;;;;;;;;4920263;29;20198;-81
2021/12/08 01:26:15;;;;;;;37.23;14.10;;;;;;;;;;4937199;29;20184;-82
2021/12/08 01:28:41;;;;;;;48.37;15.37;;;;;;;;;;4904107;29;20188;-82
2021/12/08 01:31:07;;;;;;;38.07;13.70;;;;;;;;;;4919871;29;20184;-82
2021/12/08 01:33:35;;;;;;;30.90;13.03;;;-5.30;99.90;;;;;;4919572;29;20226;-82
2021/12/08 01:36:04;;;;;;;38.73;14.77;;;-5.30;99.90;;;;;;4904655;29;20188;-81
2021/12/08 01:38:30;;;;;;;95.80;29.03;;;;;;;;;;4919831;29;20206;-82
2021/12/08 01:40:56;;;;;;;64.30;19.97;;;;;;;;;;4919853;29;20213;-81
2021/12/08 01:43:39;;;;;;;76.53;22.30;;;-5.30;99.90;;;;;;4919477;29;20190;-83
2021/12/08 01:46:09;;;;;;;54.50;16.80;;;-5.30;99.90;;;;;;4906349;29;20245;-82
2021/12/08 01:48:37;;;;;;;50.13;17.47;;;-5.30;99.90;;;;;;4936428;29;20230;-81
2021/12/08 01:51:12;;;;;;;36.97;14.47;;;-5.30;99.90;;;;;;4919664;29;20192;-82
2021/12/08 01:53:43;;;;;;;37.53;15.10;;;-5.40;99.90;;;;;;4936567;29;20292;-82
2021/12/08 01:56:10;;;;;;;42.07;15.17;;;-5.40;99.90;;;;;;4936388;29;20183;-82
2021/12/08 01:58:37;;;;;;;42.23;16.50;;;;;;;;;;4903618;29;20525;-82
2021/12/08 02:01:11;;;;;;;35.50;13.27;;;-5.40;99.90;;;;;;4936879;29;20186;-81
2021/12/08 02:03:38;;;;;;;33.10;13.10;;;-5.50;99.90;;;;;;4919212;29;20199;-82
2021/12/08 02:06:07;;;;;;;42.47;14.53;;;-5.50;99.90;;;;;;4919255;29;20575;-82
2021/12/08 02:08:33;;;;;;;45.23;15.70;;;;;;;;;;4919330;29;20182;-82
2021/12/08 02:11:00;;;;;;;42.60;16.10;;;;;;;;;;4919688;29;20191;-83
2021/12/08 02:13:30;;;;;;;32.83;13.40;;;;;;;;;;4919157;29;20219;-83
2021/12/08 02:15:56;;;;;;;44.43;17.03;;;;;;;;;;4936448;29;20319;-83
2021/12/08 02:18:22;;;;;;;21.93;12.67;;;;;;;;;;4919112;29;20192;-83
2021/12/08 02:20:49;;;;;;;34.43;13.80;;;-5.70;99.90;;;;;;4918783;29;20192;-83
2021/12/08 02:23:17;;;;;;;34.93;13.57;;;-5.80;99.90;;;;;;4918576;29;20231;-83
2021/12/08 02:25:45;;;;;;;35.87;14.03;;;;;;;;;;4935916;29;20342;-83
2021/12/08 02:28:11;;;;;;;26.30;12.13;;;;;;;;;;4917924;29;20197;-83
2021/12/08 02:30:45;;;;;;;28.03;11.10;;;-5.90;99.90;;;;;;4917795;29;20203;-83
2021/12/08 02:49:29;;;;;;;33.27;13.93;;;;;;;;;;4919307;29;20550;-82
2021/12/08 02:51:56;;;;;;;27.77;11.37;;;;;;;;;;4910226;29;20257;-82
2021/12/08 02:54:22;;;;;;;31.17;13.10;;;;;;;;;;4907636;29;20246;-82
2021/12/08 02:56:48;;;;;;;29.10;12.43;;;-6.00;99.90;;;;;;4935174;29;20189;-82
2021/12/08 02:59:14;;;;;;;24.93;11.00;;;-6.00;99.90;;;;;;4935215;29;20195;-81
2021/12/08 03:01:41;;;;;;;31.13;13.00;;;;;;;;;;4934650;29;20188;-82
2021/12/08 03:04:08;;;;;;;23.00;11.07;;;-6.10;99.90;;;;;;4910117;29;20192;-82
2021/12/08 03:06:35;;;;;;;27.30;12.27;;;-6.00;99.90;;;;;;4934901;29;20182;-82
2021/12/08 03:09:03;;;;;;;26.43;10.40;;;-6.00;99.90;;;;;;4918580;29;20192;-82
2021/12/08 03:11:29;;;;;;;29.37;11.90;;;-5.90;99.90;;;;;;4918619;29;20235;-81
2021/12/08 03:14:12;;;;;;;24.37;11.13;;;-6.00;99.90;;;;;;4919015;29;20699;-82
2021/12/08 03:16:41;;;;;;;20.63;11.17;;;-6.00;99.90;;;;;;4937008;29;20198;-82
2021/12/08 03:19:08;;;;;;;29.97;11.50;;;-6.00;99.90;;;;;;4923096;29;20512;-82
2021/12/08 03:21:34;;;;;;;24.73;11.47;;;;;;;;;;4908257;29;20241;-83
2021/12/08 03:24:43;;;;;;;23.07;10.27;;;-6.00;99.90;;;;;;4908826;29;20203;-82
2021/12/08 03:29:45;;;;;;;24.20;11.23;;;-5.90;99.90;;;;;;4953613;29;20181;-83
2021/12/08 03:32:16;;;;;;;25.33;12.17;;;-2.00;99.90;;;;;;4959918;29;20164;-82
2021/12/08 03:34:51;;;;;;;28.40;13.33;;;-5.90;99.90;;;;;;4927764;29;20236;-82
2021/12/08 03:37:20;;;;;;;27.20;11.63;;;-3.70;99.90;;;;;;4943476;29;20192;-82
2021/12/08 03:39:46;;;;;;;22.40;11.67;;;;;;;;;;4943035;29;20168;-82
2021/12/08 03:42:12;;;;;;;25.90;11.13;;;;;;;;;;4925758;29;20246;-82
2021/12/08 03:44:38;;;;;;;22.03;11.03;;;;;;;;;;4914115;29;20202;-82
2021/12/08 03:47:13;;;;;;;24.23;11.07;;;-5.90;99.90;;;;;;4918827;29;20186;-82
2021/12/08 03:49:40;;;;;;;28.00;11.13;;;;;;;;;;4927527;29;20203;-83
2021/12/08 03:52:06;;;;;;;23.70;11.30;;;;;;;;;;4943815;29;20185;-82
2021/12/08 03:54:32;;;;;;;23.13;11.63;;;;;;;;;;4911738;29;20299;-83
2021/12/08 03:56:58;;;;;;;26.53;10.83;;;;;;;;;;4901696;29;20593;-83
2021/12/08 03:59:24;;;;;;;25.50;12.57;;;;;;;;;;4922772;29;20188;-84
2021/12/08 04:01:50;;;;;;;27.13;12.07;;;;;;;;;;4903143;29;20201;-84
2021/12/08 04:04:16;;;;;;;30.07;13.03;;;;;;;;;;4919797;29;20185;-83
2021/12/08 04:06:49;;;;;;;22.97;11.80;;;;;;;;;;4902496;29;20317;-84
2021/12/08 04:09:29;;;;;;;26.07;10.23;;;-5.80;99.90;;;;;;4888162;29;20287;-83
2021/12/08 04:12:00;;;;;;;26.03;10.97;;;-5.80;99.90;;;;;;4902422;29;20180;-84
2021/12/08 04:14:35;;;;;;;30.40;13.03;;;-5.80;99.90;;;;;;4902675;29;20271;-83
2021/12/08 04:17:16;;;;;;;29.93;13.27;;;-5.90;99.90;;;;;;4902484;29;20216;-84
2021/12/08 04:19:44;;;;;;;24.70;12.50;;;-5.80;99.90;;;;;;4902254;29;20649;-83
2021/12/08 04:22:18;;;;;;;26.37;12.77;;;-5.80;99.90;;;;;;4912455;29;20248;-83
2021/12/08 04:24:46;;;;;;;24.67;11.80;;;-5.70;99.90;;;;;;4938469;29;20556;-83
2021/12/08 04:27:21;;;;;;;21.47;11.00;;;-5.70;99.90;;;;;;4920926;29;20211;-83
2021/12/08 04:29:48;;;;;;;24.20;11.87;;;;;;;;;;4937834;29;20178;-84
2021/12/08 04:32:16;;;;;;;24.63;11.33;;;-5.70;99.90;;;;;;4920949;29;20217;-84
2021/12/08 04:34:46;;;;;;;23.83;11.07;;;-5.70;99.90;;;;;;4920492;29;20219;-84
2021/12/08 04:37:24;;;;;;;21.80;10.53;;;-5.60;99.90;;;;;;4937998;29;20290;-83
2021/12/08 04:45:12;;;;;;;29.90;13.67;;;-5.60;99.90;;;;;;4935384;29;20229;-84
2021/12/08 04:48:02;;;;;;;25.60;11.07;;;;;;;;;;4939526;29;20522;-84
2021/12/08 05:01:46;;;;;;;26.87;12.00;;;-5.60;99.90;;;;;;4923256;29;20199;-84
2021/12/08 05:07:13;;;;;;;24.23;11.50;;;-5.60;99.90;;;;;;4937288;29;20195;-85
2021/12/08 05:09:40;;;;;;;32.87;15.87;;;;;;;;;;4937644;29;20607;-84
2021/12/08 05:12:12;;;;;;;22.37;11.10;;;-5.70;99.90;;;;;;4920046;29;20290;-84
2021/12/08 05:14:47;;;;;;;29.47;12.70;;;-5.60;99.90;;;;;;4936221;29;20225;-84
2021/12/08 05:17:29;;;;;;;33.07;12.80;;;-5.50;99.90;;;;;;4936462;29;20627;-83
2021/12/08 05:19:59;;;;;;;27.87;11.93;;;-5.50;99.90;;;;;;4935915;29;20186;-84
2021/12/08 05:22:41;;;;;;;29.93;14.07;;;-5.60;99.90;;;;;;4937316;29;20230;-84
2021/12/08 05:25:12;;;;;;;39.03;19.50;;;-5.50;99.90;;;;;;4935928;29;20187;-83
2021/12/08 05:27:46;;;;;;;32.67;12.73;;;-5.40;99.90;;;;;;4938842;29;20167;-83
2021/12/08 05:30:28;;;;;;;27.13;12.27;;;-3.80;99.90;;;;;;4938161;29;20746;-83
2021/12/08 05:32:54;;;;;;;24.13;11.77;;;;;;;;;;4937940;29;20185;-83
2021/12/08 05:35:21;;;;;;;23.73;12.67;;;-5.40;99.90;;;;;;4938512;29;20217;-83
2021/12/08 05:37:49;;;;;;;32.93;16.47;;;-5.40;99.90;;;;;;4955454;29;20258;-82
2021/12/08 05:40:23;;;;;;;26.13;11.67;;;-5.40;99.90;;;;;;4922673;29;20277;-83
2021/12/08 05:42:49;;;;;;;23.13;10.07;;;;;;;;;;4938413;29;20232;-84
2021/12/08 05:45:19;;;;;;;63.30;22.73;;;-5.40;99.90;;;;;;4929994;29;20179;-82
2021/12/08 05:47:47;;;;;;;32.83;14.60;;;-5.40;99.90;;;;;;4927947;29;20262;-83
2021/12/08 05:50:20;;;;;;;33.40;13.40;;;-5.40;99.90;;;;;;4943916;29;20640;-82
2021/12/08 05:52:46;;;;;;;30.63;14.23;;;;;;;;;;4936186;29;20178;-82
2021/12/08 05:55:13;;;;;;;30.27;14.20;;;-5.40;99.90;;;;;;4922487;29;20216;-82
2021/12/08 05:57:42;;;;;;;38.30;18.40;;;-5.30;99.90;;;;;;4938707;29;20200;-82
2021/12/08 06:00:17;;;;;;;29.80;15.83;;;-5.20;99.90;;;;;;4955482;29;20169;-82
2021/12/08 06:02:44;;;;;;;22.93;12.40;;;;;;;;;;4955508;29;20650;-82
2021/12/08 06:05:11;;;;;;;26.07;12.20;;;-5.30;99.90;;;;;;4937451;29;20276;-83
2021/12/08 06:07:37;;;;;;;26.87;12.60;;;;;;;;;;4906830;29;20182;-83
2021/12/08 06:10:09;;;;;;;35.07;13.83;;;-5.10;99.90;;;;;;4921601;29;20188;-83
2021/12/08 06:12:35;;;;;;;28.40;13.40;;;-5.20;99.90;;;;;;4937949;29;20249;-82
2021/12/08 06:15:02;;;;;;;27.33;13.37;;;-5.20;99.90;;;;;;4938059;29;20227;-82
2021/12/08 06:17:29;;;;;;;30.60;15.40;;;-5.20;99.90;;;;;;4955399;29;20179;-85
2021/12/08 06:19:56;;;;;;;33.03;15.57;;;;;;;;;;4955358;29;20236;-82
2021/12/08 06:22:23;;;;;;;31.33;15.93;;;-5.10;99.90;;;;;;4934526;29;20252;-82
2021/12/08 07:28:16;;;;;;;55.97;24.33;;;-4.60;99.90;;;;;;4990574;23;20235;-80
2021/12/08 07:30:50;;;;;;;50.33;23.90;;;-3.80;99.90;;;;;;4933984;29;20285;-80
2021/12/08 07:33:15;;;;;;;39.60;18.33;;;-4.50;99.90;;;;;;4961665;29;20175;-79
2021/12/08 07:35:46;;;;;;;91.13;27.57;;;-4.40;99.90;;;;;;4969810;28;20199;-80
2021/12/08 07:38:19;;;;;;;63.83;22.87;;;-4.50;99.90;;;;;;4953654;28;20179;-80
2021/12/08 07:40:50;;;;;;;44.03;19.30;;;-4.60;99.90;;;;;;4971065;28;20214;-80
2021/12/08 07:43:20;;;;;;;60.53;21.40;;;-4.70;99.90;;;;;;4955998;28;20210;-80
2021/12/08 07:45:56;;;;;;;54.23;24.13;;;-4.60;99.90;;;;;;4972962;28;20191;-80
2021/12/08 07:48:26;;;;;;;66.33;26.30;;;-4.70;99.90;;;;;;4973368;28;20214;-80
2021/12/08 07:51:01;;;;;;;46.90;19.57;;;-4.60;99.90;;;;;;4945138;28;20180;-81
2021/12/08 07:53:28;;;;;;;45.57;18.13;;;-4.60;99.90;;;;;;4973612;28;20209;-81
2021/12/08 07:56:02;;;;;;;61.40;25.43;;;-4.60;99.90;;;;;;4975349;28;20194;-82
2021/12/08 07:58:28;;;;;;;47.50;21.10;;;;;;;;;;4972239;28;20178;-81
2021/12/08 08:00:58;;;;;;;58.27;23.13;;;-4.60;99.90;;;;;;4970070;28;20187;-79
2021/12/08 08:03:26;;;;;;;49.87;21.00;;;-4.50;99.90;;;;;;4951941;28;20650;-82
2021/12/08 08:05:54;;;;;;;70.63;34.40;;;-4.50;99.90;;;;;;4953372;28;20583;-80
2021/12/08 08:08:21;;;;;;;50.30;23.20;;;;;;;;;;4955581;28;20171;-81
2021/12/08 08:10:54;;;;;;;48.27;19.00;;;-4.60;99.90;;;;;;4952058;28;20183;-82
2021/12/08 08:13:21;;;;;;;54.03;22.43;;;-4.50;99.90;;;;;;4966443;28;20197;-80
2021/12/08 08:15:54;;;;;;;40.60;19.13;;;-4.40;99.90;;;;;;4936234;28;20738;-80
2021/12/08 08:18:25;;;;;;;52.87;22.53;;;-4.30;99.90;;;;;;4952758;28;20186;-80
2021/12/08 08:20:54;;;;;;;48.53;22.50;;;-4.30;99.90;;;;;;4954868;28;20347;-80
2021/12/08 08:23:22;;;;;;;56.50;23.00;;;-4.20;99.90;;;;;;4953352;28;20271;-80
2021/12/08 08:25:49;;;;;;;56.80;21.77;;;-4.10;99.90;;;;;;4967084;28;20198;-81
2021/12/08 08:28:18;;;;;;;56.80;22.73;;;-4.10;99.90;;;;;;4968553;28;20226;-81
2021/12/08 08:30:54;;;;;;;57.67;24.17;;;-4.10;99.90;;;;;;4971826;28;20188;-80
2021/12/08 08:33:20;;;;;;;65.07;25.00;;;-4.10;99.90;;;;;;4970415;28;20659;-81
2021/12/08 08:35:51;;;;;;;44.60;20.10;;;-4.00;99.90;;;;;;4956310;28;20598;-80
2021/12/08 08:38:21;;;;;;;67.70;28.83;;;-1.50;99.90;;;;;;4954184;28;20176;-81
2021/12/08 08:41:15;;;;;;;126.07;49.23;;;-4.30;99.90;;;;;;4971276;28;20183;-82
2021/12/08 08:43:43;;;;;;;82.70;37.73;;;-4.00;99.90;;;;;;4926152;28;20202;-83
2021/12/08 08:46:16;;;;;;;89.27;41.57;;;-4.10;99.90;;;;;;4954618;28;20266;-81
2021/12/08 08:48:56;;;;;;;62.03;28.93;;;-4.10;99.90;;;;;;4970082;28;20234;-80
2021/12/08 08:51:29;;;;;;;76.57;32.60;;;-4.10;99.90;;;;;;4956628;28;20693;-81
2021/12/08 08:54:00;;;;;;;90.60;33.80;;;-4.00;99.90;;;;;;4953494;28;20286;-80
2021/12/08 08:56:30;;;;;;;66.03;23.70;;;-4.10;99.90;;;;;;4953524;28;20217;-82
2021/12/08 08:59:01;;;;;;;56.40;22.53;;;-4.10;99.90;;;;;;4973164;28;20183;-81
2021/12/08 09:01:41;;;;;;;51.67;21.53;;;-3.70;99.90;;;;;;4970038;28;20258;-83
2021/12/08 09:04:30;;;;;;;73.13;31.13;;;-4.10;99.90;;;;;;4952073;28;20670;-81
2021/12/08 09:07:02;;;;;;;88.87;36.17;;;-4.10;99.90;;;;;;4971357;28;20186;-80
2021/12/08 09:09:30;;;;;;;79.77;31.00;;;-2.80;99.90;;;;;;4953310;28;20180;-81
2021/12/08 09:11:56;;;;;;;65.93;27.73;;;;;;;;;;4954871;28;20722;-81
2021/12/08 09:14:40;;;;;;;63.13;26.00;;;-4.10;99.90;;;;;;4972024;28;20677;-80
2021/12/08 09:17:11;;;;;;;57.83;22.93;;;-4.10;99.90;;;;;;4955931;28;20182;-80
2021/12/08 09:19:43;;;;;;;60.00;24.17;;;-2.40;99.90;;;;;;4952936;28;20547;-81
2021/12/08 09:22:18;;;;;;;57.70;21.53;;;-2.40;99.90;;;;;;4970371;28;20190;-79
2021/12/08 09:25:04;;;;;;;51.80;19.77;;;-4.00;99.90;;;;;;4969809;28;20182;-82
2021/12/08 09:27:35;;;;;;;77.07;27.57;;;-4.00;99.90;;;;;;4953096;28;20865;-83
2021/12/08 09:30:07;;;;;;;66.87;26.87;;;-4.10;99.90;;;;;;4966430;28;20191;-80
2021/12/08 09:32:58;;;;;;;44.77;20.20;;;-3.90;99.90;;;;;;4954556;28;20198;-82
2021/12/08 09:35:54;;;;;;;74.53;27.67;;;-4.10;99.90;;;;;;4951875;28;20214;-81
2021/12/08 09:38:49;;;;;;;90.03;33.83;;;-4.00;99.90;;;;;;4971135;28;20191;-82
2021/12/08 09:41:27;;;;;;;73.70;26.07;;;-4.00;99.90;;;;;;4930929;28;20283;-81
2021/12/08 09:44:06;;;;;;;45.73;19.87;;;-4.00;99.90;;;;;;4954540;28;20239;-81
2021/12/08 09:46:35;;;;;;;68.27;24.13;;;-4.00;99.90;;;;;;4973093;28;20188;-80
2021/12/08 09:49:04;;;;;;;50.17;21.17;;;-1.80;99.90;;;;;;4970560;28;20193;-80
2021/12/08 09:51:30;;;;;;;81.77;28.17;;;;;;;;;;4952430;28;20266;-80
2021/12/08 09:53:56;;;;;;;62.97;22.43;;;-4.10;99.90;;;;;;4951463;28;20212;-80
2021/12/08 09:56:24;;;;;;;85.83;28.17;;;-4.10;99.90;;;;;;4953906;28;20185;-80
2021/12/08 09:58:50;;;;;;;119.30;36.63;;;-2.60;99.90;;;;;;4968366;28;20659;-80
2021/12/08 10:01:19;;;;;;;66.03;23.83;;;-4.00;99.90;;;;;;4952580;28;20190;-82
2021/12/08 10:03:47;;;;;;;53.10;21.30;;;-3.80;99.90;;;;;;4928443;29;20625;-80
2021/12/08 10:06:15;;;;;;;68.03;24.00;;;-3.40;99.90;;;;;;4960199;28;20213;-82
2021/12/08 10:08:42;;;;;;;51.40;22.50;;;-3.90;99.90;;;;;;4969363;28;20190;-78
2021/12/08 10:11:08;;;;;;;100.97;32.67;;;-3.90;99.90;;;;;;4951174;28;20255;-81
2021/12/08 10:13:34;;;;;;;87.70;29.13;;;;;;;;;;4950689;28;20216;-81
2021/12/08 10:16:00;;;;;;;78.80;26.57;;;-3.90;99.90;;;;;;4953345;28;20218;-80
2021/12/08 10:18:26;;;;;;;60.23;22.97;;;-3.80;99.90;;;;;;4939440;28;20742;-80
2021/12/08 10:20:54;;;;;;;76.93;27.80;;;-3.80;99.90;;;;;;4946558;28;20199;-81
2021/12/08 10:23:24;;;;;;;44.17;18.63;;;-2.90;99.90;;;;;;4948269;28;20196;-80
2021/12/08 10:25:58;;;;;;;46.07;21.40;;;-3.70;99.90;;;;;;4963515;28;20186;-80
2021/12/08 10:28:41;;;;;;;49.57;20.00;;;-3.80;99.90;;;;;;4953639;28;20680;-83
2021/12/08 10:31:17;;;;;;;49.87;21.53;;;-2.20;99.90;;;;;;4935988;29;20191;-81
2021/12/08 10:34:20;;;;;;;39.90;17.90;;;-3.80;99.90;;;;;;4957580;28;20231;-82
2021/12/08 10:36:58;;;;;;;44.70;19.50;;;-3.70;99.90;;;;;;4951852;29;20603;-80
2021/12/08 10:39:41;;;;;;;33.00;16.97;;;-3.70;99.90;;;;;;4944571;29;20181;-81
2021/12/08 10:42:31;;;;;;;37.37;15.30;;;-3.70;99.90;;;;;;4942951;29;20191;-80
2021/12/08 10:45:21;;;;;;;34.07;16.20;;;-3.70;99.90;;;;;;4945514;29;20742;-81
2021/12/08 10:47:48;;;;;;;31.03;14.73;;;-3.70;99.90;;;;;;4957451;28;20238;-80
2021/12/08 10:56:07;;;;;;;33.83;14.63;;;-2.40;99.90;;;;;;4952271;28;20218;-82
2021/12/08 10:58:35;;;;;;;38.23;16.00;;;-3.70;99.90;;;;;;4926011;29;20214;-81
2021/12/08 11:01:16;;;;;;;40.17;16.50;;;-3.20;99.90;;;;;;4951392;28;20206;-81
2021/12/08 11:03:43;;;;;;;33.33;15.47;;;-3.50;99.90;;;;;;4938268;29;20191;-86
2021/12/08 11:06:12;;;;;;;28.57;14.80;;;;;;;;;;4951446;28;20266;-81
2021/12/08 11:08:44;;;;;;;37.07;15.53;;;-3.50;99.90;;;;;;4959735;28;20242;-81
2021/12/08 11:11:31;;;;;;;35.77;16.80;;;-3.50;99.90;;;;;;4950722;28;20207;-83
2021/12/08 11:13:59;;;;;;;36.37;15.30;;;-3.40;99.90;;;;;;4968984;28;20746;-81
2021/12/08 11:16:29;;;;;;;33.97;15.30;;;-2.00;99.90;;;;;;4965687;28;20192;-82
2021/12/08 11:19:10;;;;;;;34.90;14.93;;;-3.40;99.90;;;;;;4949136;28;20191;-81
2021/12/08 11:21:43;;;;;;;37.73;16.50;;;-3.50;99.90;;;;;;4963956;28;20183;-82
2021/12/08 11:24:31;;;;;;;40.03;16.80;;;-3.40;99.90;;;;;;4969793;28;20221;-82
2021/12/08 11:26:58;;;;;;;41.43;18.80;;;-3.40;99.90;;;;;;4965712;28;20239;-81
2021/12/08 11:29:27;;;;;;;37.77;15.63;;;-3.40;99.90;;;;;;4946186;29;20195;-81
2021/12/08 11:31:53;;;;;;;31.27;15.03;;;;;;;;;;4953112;29;20645;-81
2021/12/08 11:34:22;;;;;;;41.03;16.23;;;-3.40;99.90;;;;;;4952277;29;20267;-81
2021/12/08 11:36:56;;;;;;;32.07;15.30;;;-1.70;99.90;;;;;;4935412;29;20185;-81
2021/12/08 11:39:37;;;;;;;29.47;15.30;;;-3.50;99.90;;;;;;4934918;29;20212;-81
2021/12/08 11:42:19;;;;;;;37.50;16.57;;;-5.30;99.90;;;;;;4947873;29;20690;-83
2021/12/08 11:44:51;;;;;;;29.83;13.57;;;-3.50;99.90;;;;;;4952193;29;20208;-82
2021/12/08 11:47:23;;;;;;;33.73;15.73;;;-3.70;99.90;;;;;;4952787;29;20173;-82
2021/12/08 11:49:56;;;;;;;30.50;13.63;;;-3.70;99.90;;;;;;4972021;29;20188;-82
2021/12/08 11:52:32;;;;;;;32.17;15.00;;;-2.50;99.90;;;;;;4953469;29;20198;-80
2021/12/08 11:55:04;;;;;;;43.23;18.00;;;-3.70;99.90;;;;;;4924751;29;20206;-81
2021/12/08 11:57:39;;;;;;;33.57;15.40;;;-3.60;99.90;;;;;;4944062;29;20283;-81
2021/12/08 12:00:08;;;;;;;29.17;14.13;;;-3.20;99.90;;;;;;4951783;29;20180;-83
2021/12/08 12:02:41;;;;;;;37.57;15.67;;;-3.70;99.90;;;;;;4954254;28;20208;-82
2021/12/08 12:05:11;;;;;;;31.17;16.17;;;-2.40;99.90;;;;;;4956320;29;20320;-81
2021/12/08 12:07:39;;;;;;;33.77;15.60;;;-2.60;99.90;;;;;;4934955;29;20652;-81
2021/12/08 12:10:15;;;;;;;33.13;14.83;;;-3.80;99.90;;;;;;4929826;29;20184;-82
2021/12/08 12:12:41;;;;;;;29.80;15.13;;;-3.90;99.90;;;;;;4929843;29;20172;-81
2021/12/08 12:15:09;;;;;;;35.50;16.10;;;-3.80;99.90;;;;;;4925716;29;20220;-81
2021/12/08 12:17:36;;;;;;;39.60;16.70;;;;;;;;;;4929327;29;20273;-81
2021/12/08 12:20:13;;;;;;;30.07;15.47;;;-3.60;99.90;;;;;;4946904;29;20214;-81
2021/12/08 12:22:57;;;;;;;36.30;17.70;;;-3.60;99.90;;;;;;4924914;29;20183;-81
2021/12/08 12:26:10;;;;;;;30.07;14.37;;;-3.50;99.90;;;;;;4930139;29;20195;-84
2021/12/08 12:29:01;;;;;;;33.40;13.47;;;-3.50;99.90;;;;;;4891033;29;21715;-80
2021/12/08 12:31:44;;;;;;;39.13;17.63;;;-3.60;99.90;;;;;;4860866;29;20201;-81
2021/12/08 12:34:35;;;;;;;39.80;16.50;;;-3.50;99.90;;;;;;4919263;29;20234;-79
2021/12/08 12:37:17;;;;;;;38.33;17.43;;;-3.60;99.90;;;;;;4941682;29;20199;-80
2021/12/08 12:40:04;;;;;;;75.70;24.43;;;-3.60;99.90;;;;;;4941794;29;20194;-81
2021/12/08 12:42:54;;;;;;;35.80;16.00;;;-3.50;99.90;;;;;;4949255;29;20181;-81
2021/12/08 12:45:24;;;;;;;66.00;24.77;;;-3.40;99.90;;;;;;4950620;29;20184;-81
2021/12/08 12:48:20;;;;;;;133.87;42.13;;;-2.20;99.90;;;;;;4925771;29;20191;-81
2021/12/08 12:50:56;;;;;;;91.67;35.67;;;-3.50;99.90;;;;;;4943154;29;20187;-80
2021/12/08 12:53:45;;;;;;;63.77;27.30;;;-2.30;99.90;;;;;;4931514;29;20251;-82
2021/12/08 12:56:15;;;;;;;147.60;46.37;;;-2.20;99.90;;;;;;4928782;29;20698;-80
2021/12/08 12:58:52;;;;;;;58.63;23.03;;;-2.00;99.90;;;;;;4948068;29;20191;-81
2021/12/08 13:01:32;;;;;;;46.23;20.87;;;-3.30;99.90;;;;;;4948028;29;20656;-80
2021/12/08 13:04:03;;;;;;;42.20;18.17;;;-3.40;99.90;;;;;;4949192;29;20305;-81
2021/12/08 13:06:48;;;;;;;36.00;15.73;;;-3.20;99.90;;;;;;4932851;29;20184;-79
2021/12/08 13:09:35;;;;;;;37.57;18.30;;;-3.50;99.90;;;;;;4952830;29;20193;-80
2021/12/08 13:12:19;;;;;;;57.40;21.83;;;-1.60;99.90;;;;;;4953148;29;20181;-80
2021/12/08 13:14:47;;;;;;;54.57;21.93;;;-2.50;99.90;;;;;;4935890;29;20242;-80
2021/12/08 13:17:25;;;;;;;58.63;22.83;;;-2.30;99.90;;;;;;4928506;29;20197;-81
2021/12/08 13:19:50;;;;;;;62.20;22.87;;;-3.60;99.90;;;;;;4936113;29;20662;-81
2021/12/08 13:22:55;;;;;;;61.47;22.90;;;-3.60;99.90;;;;;;4955283;29;20180;-81
2021/12/08 13:25:26;;;;;;;74.40;26.87;;;-3.50;99.90;;;;;;4954803;29;20183;-83
2021/12/08 13:27:54;;;;;;;56.53;22.33;;;-3.50;99.90;;;;;;4955177;28;20686;-79
2021/12/08 13:30:20;;;;;;;48.60;19.10;;;-1.90;99.90;;;;;;4955530;29;20181;-83
2021/12/08 13:32:47;;;;;;;50.93;19.97;;;-2.90;99.90;;;;;;4937947;29;20247;-82
2021/12/08 13:35:34;;;;;;;56.27;20.17;;;-2.10;99.90;;;;;;4926813;28;20234;-84
2021/12/08 13:38:00;;;;;;;84.20;28.33;;;-3.60;99.90;;;;;;4955746;29;20695;-82
2021/12/08 13:40:57;;;;;;;86.60;31.73;;;-3.60;99.90;;;;;;4922805;29;20275;-82
2021/12/08 13:43:38;;;;;;;111.07;39.13;;;-3.60;99.90;;;;;;4923816;29;20191;-82
2021/12/08 13:46:09;;;;;;;75.40;26.73;;;-2.70;99.90;;;;;;4939427;29;20192;-81
2021/12/08 13:48:56;;;;;;;70.03;25.60;;;-3.50;99.90;;;;;;4939692;29;20190;-83
2021/12/08 13:51:22;;;;;;;51.93;20.87;;;-3.60;99.90;;;;;;4938983;29;20191;-81
2021/12/08 13:54:26;;;;;;;58.70;22.87;;;-1.50;99.90;;;;;;4939027;29;20203;-81
2021/12/08 13:56:53;;;;;;;55.67;22.33;;;-3.60;99.90;;;;;;4884154;29;20633;-81
2021/12/08 13:59:56;;;;;;;45.20;19.27;;;-2.50;99.90;;;;;;4920124;29;20273;-82
2021/12/08 14:02:22;;;;;;;175.87;56.93;;;-3.60;99.90;;;;;;4920256;29;20189;-83
2021/12/08 14:04:48;;;;;;;44.87;18.43;;;-2.70;99.90;;;;;;4945257;29;20183;-82
2021/12/08 14:07:19;;;;;;;32.70;15.17;;;-2.10;99.90;;;;;;4935296;29;20649;-82
2021/12/08 14:09:45;;;;;;;42.57;18.73;;;-3.50;99.90;;;;;;4936384;29;20310;-81
2021/12/08 14:12:11;;;;;;;76.90;28.50;;;-2.60;99.90;;;;;;4910011;29;20224;-81
2021/12/08 14:14:37;;;;;;;67.83;26.03;;;-2.50;99.90;;;;;;4922713;29;20238;-81
2021/12/08 14:17:03;;;;;;;40.30;19.10;;;-1.30;99.90;;;;;;4907362;29;20208;-81
2021/12/08 14:19:41;;;;;;;54.57;21.43;;;-3.80;99.90;;;;;;4907507;29;20212;-81
2021/12/08 14:22:06;;;;;;;129.13;38.63;;;-3.80;99.90;;;;;;4940677;28;20245;-82
2021/12/08 14:24:32;;;;;;;101.50;33.30;;;-1.90;99.90;;;;;;4953230;28;20176;-81
2021/12/08 14:26:58;;;;;;;53.50;23.00;;;-1.90;99.90;;;;;;4940169;29;20223;-82
2021/12/08 14:29:25;;;;;;;35.00;16.43;;;-3.80;99.90;;;;;;4946515;29;20236;-81
2021/12/08 14:31:56;;;;;;;31.27;13.87;;;-3.50;99.90;;;;;;4960009;29;20190;-83
2021/12/08 14:34:28;;;;;;;112.30;37.43;;;-1.80;99.90;;;;;;4926487;29;20208;-82
2021/12/08 14:36:57;;;;;;;48.17;20.57;;;-3.90;99.90;;;;;;4936424;29;20187;-81
2021/12/08 14:39:31;;;;;;;51.57;22.13;;;-1.60;99.90;;;;;;4941501;29;20202;-83
2021/12/08 14:42:01;;;;;;;36.57;15.87;;;-2.90;99.90;;;;;;4940816;29;20181;-82
2021/12/08 14:44:48;;;;;;;56.23;21.87;;;-3.90;99.90;;;;;;4958849;29;20187;-82
2021/12/08 14:47:16;;;;;;;37.00;15.47;;;-3.90;99.90;;;;;;4956265;29;20184;-82
2021/12/08 14:49:48;;;;;;;73.37;24.33;;;-3.90;99.90;;;;;;4903978;29;20192;-81
2021/12/08 14:52:17;;;;;;;45.90;18.63;;;-3.90;99.90;;;;;;4917288;29;20180;-81
2021/12/08 14:54:46;;;;;;;38.73;15.47;;;-3.50;99.90;;;;;;4934068;29;20685;-80
2021/12/08 14:57:18;;;;;;;46.50;18.77;;;-2.60;99.90;;;;;;4933252;29;20187;-82
2021/12/08 14:59:54;;;;;;;58.57;19.10;;;-1.40;99.90;;;;;;4920863;29;20185;-80
2021/12/08 15:02:24;;;;;;;43.97;19.00;;;-3.90;99.90;;;;;;4929647;29;20210;-81